Time;durP1;ratioP1;P1;durP2;ratioP2;P2;SDS_P1;SDS_P2;PMS_P1;PMS_P2;Temp;Humidity;BMP_temperature;BMP_pressure;BME280_temperature;BME280_humidity;BME280_pressure;Samples;Min_cycle;Max_cycle;Signal;HPM_P1;HPM_P2
2022/12/30 00:01:29;;;;;;;5.35;1.40;;;;;12.40;100708.00;;;;5069674;28;20199;-73
2022/12/30 00:03:57;;;;;;;8.15;1.70;;;;;12.40;100707.00;;;;5070082;28;20195;-73
2022/12/30 00:06:25;;;;;;;5.93;1.27;;;;;12.40;100706.00;;;;5069646;28;20673;-75
2022/12/30 00:08:55;;;;;;;3.83;1.05;;;;;12.40;100710.00;;;;5060128;28;20227;-75
2022/12/30 00:11:24;;;;;;;6.25;1.73;;;;;12.30;100707.00;;;;5060320;28;20215;-75
2022/12/30 00:33:40;;;;;;;6.53;1.58;;;;;12.00;100722.00;;;;5057277;28;20202;-73
2022/12/30 00:36:08;;;;;;;3.35;1.30;;;;;12.00;100719.00;;;;5054322;28;20590;-73
2022/12/30 00:38:36;;;;;;;4.93;1.42;;;;;12.00;100723.00;;;;5057266;28;20662;-73
2022/12/30 00:43:49;;;;;;;6.05;1.20;;;;;12.00;100723.00;;;;5060344;28;20246;-75
2022/12/30 00:46:18;;;;;;;2.70;1.08;;;;;11.90;100730.00;;;;5064562;28;20199;-75
2022/12/30 00:57:01;;;;;;;4.72;0.85;;;;;11.80;100733.00;;;;5050912;28;20214;-73
2022/12/30 00:59:29;;;;;;;3.72;0.80;;;;;11.80;100738.00;;;;5060894;28;20203;-73
2022/12/30 01:01:56;;;;;;;3.53;0.88;;;;;11.80;100747.00;;;;5050908;28;20184;-73
2022/12/30 01:04:24;;;;;;;2.22;0.80;;;;;11.80;100750.00;;;;5067944;28;20707;-73
2022/12/30 01:06:51;;;;;;;3.30;1.45;;;;;11.80;100747.00;;;;5051302;28;20199;-73
2022/12/30 01:09:20;;;;;;;3.75;1.38;;;;;11.70;100745.00;;;;5053130;28;20227;-73
2022/12/30 01:12:07;;;;;;;4.40;0.93;;;;;11.70;100743.00;;;;5057708;28;20204;-73
2022/12/30 01:14:34;;;;;;;3.42;0.95;;;;;11.70;100746.00;;;;5049599;28;20200;-73
2022/12/30 01:17:02;;;;;;;4.70;0.90;;;;;11.70;100748.00;;;;5051746;28;20227;-73
2022/12/30 01:19:29;;;;;;;1.77;0.70;;;;;11.70;100749.00;;;;5050262;28;20199;-73
2022/12/30 01:21:56;;;;;;;5.35;0.98;;;;;11.70;100747.00;;;;5050354;28;20206;-73
2022/12/30 01:24:25;;;;;;;2.70;0.90;;;;;11.70;100752.00;;;;5050522;28;20218;-73
2022/12/30 01:26:52;;;;;;;4.53;0.80;;;;;11.70;100750.00;;;;5048661;28;20215;-73
2022/12/30 01:29:23;;;;;;;3.15;0.80;;;;;11.60;100751.00;;;;5048783;28;20223;-73
2022/12/30 01:31:50;;;;;;;2.72;0.70;;;;;11.60;100750.00;;;;5047015;28;20195;-74
2022/12/30 01:34:17;;;;;;;4.68;0.90;;;;;11.60;100750.00;;;;5047519;28;20196;-74
2022/12/30 01:36:45;;;;;;;3.92;1.10;;;;;11.60;100751.00;;;;5062250;28;20211;-73
2022/12/30 01:39:12;;;;;;;4.63;0.80;;;;;11.60;100753.00;;;;5052443;28;20226;-74
2022/12/30 01:41:40;;;;;;;3.95;1.00;;;;;11.60;100764.00;;;;5058179;28;20685;-74
2022/12/30 01:44:57;;;;;;;3.42;0.90;;;;;11.50;100769.00;;;;5049761;28;20246;-74
2022/12/30 01:47:30;;;;;;;4.40;0.88;;;;;11.60;100772.00;;;;4997926;28;20217;-74
2022/12/30 01:50:03;;;;;;;5.38;1.17;;;;;11.60;100778.00;;;;4996331;28;20753;-74
2022/12/30 01:52:31;;;;;;;1.33;0.50;;;;;11.60;100782.00;;;;5019825;28;20200;-74
2022/12/30 01:55:05;;;;;;;5.68;1.10;;;;;11.60;100781.00;;;;5051879;28;20199;-74
2022/12/30 01:57:35;;;;;;;3.60;0.90;;;;;11.60;100784.00;;;;5063568;28;20211;-73
2022/12/30 02:00:04;;;;;;;2.45;0.95;;;;;11.60;100786.00;;;;5048545;28;20200;-74
2022/12/30 02:02:32;;;;;;;2.28;0.73;;;;;11.60;100783.00;;;;5048735;28;20669;-74
2022/12/30 02:05:01;;;;;;;5.88;1.65;;;;;11.60;100787.00;;;;5047916;28;20207;-74
2022/12/30 02:07:34;;;;;;;5.60;1.42;;;;;11.50;100783.00;;;;5060095;28;20198;-73
2022/12/30 02:10:02;;;;;;;6.88;1.08;;;;;11.60;100774.00;;;;5052536;28;20218;-74
2022/12/30 02:12:29;;;;;;;3.88;1.00;;;;;11.60;100779.00;;;;5056734;28;20196;-74
2022/12/30 02:14:58;;;;;;;2.22;1.05;;;;;11.60;100772.00;;;;5048910;28;20204;-74
2022/12/30 02:17:34;;;;;;;2.55;1.23;;;;;11.50;100767.00;;;;5050485;28;20234;-74
2022/12/30 02:20:47;;;;;;;6.60;1.48;;;;;11.40;100754.00;;;;5048486;28;20599;-75
2022/12/30 02:24:08;;;;;;;3.90;1.23;;;;;11.40;100747.00;;;;5049129;28;20198;-74
2022/12/30 02:26:51;;;;;;;4.30;1.20;;;;;11.50;100750.00;;;;5048372;28;20200;-74
2022/12/30 02:29:58;;;;;;;2.88;0.77;;;;;11.40;100753.00;;;;5048641;28;20188;-74
2022/12/30 02:32:36;;;;;;;2.28;0.70;;;;;11.40;100746.00;;;;5056420;28;20202;-74
2022/12/30 02:35:12;;;;;;;5.07;1.30;;;;;11.40;100744.00;;;;5055286;28;20179;-74
2022/12/30 02:37:46;;;;;;;2.97;0.95;;;;;11.40;100729.00;;;;5055260;28;20239;-74
2022/12/30 02:40:20;;;;;;;2.83;1.35;;;;;11.40;100723.00;;;;5054449;28;20194;-74
2022/12/30 02:45:46;;;;;;;2.30;0.63;;;;;11.40;100722.00;;;;5028624;28;20569;-74
2022/12/30 02:48:18;;;;;;;5.45;1.35;;;;;11.40;100722.00;;;;5069011;28;20207;-74
2022/12/30 02:53:35;;;;;;;5.80;1.17;;;;;11.40;100714.00;;;;5048374;28;20202;-74
2022/12/30 02:56:03;;;;;;;5.15;1.20;;;;;11.40;100715.00;;;;5047333;28;20195;-75
2022/12/30 02:58:34;;;;;;;5.05;1.13;;;;;11.30;100715.00;;;;5046838;28;20218;-75
2022/12/30 03:04:16;;;;;;;3.85;0.73;;;;;11.20;100724.00;;;;5011713;28;20700;-74
2022/12/30 03:07:10;;;;;;;2.33;0.88;;;;;11.20;100729.00;;;;5057211;28;20187;-74
2022/12/30 03:12:41;;;;;;;4.30;0.95;;;;;11.20;100725.00;;;;5066660;28;20705;-74
2022/12/30 03:15:15;;;;;;;3.92;1.00;;;;;11.20;100723.00;;;;5056864;28;20203;-74
2022/12/30 03:17:44;;;;;;;5.72;1.15;;;;;11.20;100725.00;;;;5072265;28;20198;-74
2022/12/30 03:20:15;;;;;;;3.13;1.17;;;;;11.20;100722.00;;;;5061893;28;20213;-74
2022/12/30 03:28:29;;;;;;;5.18;1.52;;;;;11.20;100727.00;;;;5009460;28;20619;-74
2022/12/30 03:31:00;;;;;;;4.20;1.50;;;;;11.20;100728.00;;;;5044718;28;20715;-74
2022/12/30 03:33:28;;;;;;;6.13;1.42;;;;;11.20;100737.00;;;;5054468;28;20195;-74
2022/12/30 03:36:03;;;;;;;3.20;0.82;;;;;11.20;100729.00;;;;5066318;28;20195;-74
2022/12/30 03:38:34;;;;;;;3.65;1.55;;;;;11.20;100721.00;;;;5054234;28;20194;-74
2022/12/30 03:41:04;;;;;;;6.22;1.40;;;;;11.20;100716.00;;;;5068299;28;20218;-74
2022/12/30 03:43:32;;;;;;;3.22;1.17;;;;;11.20;100715.00;;;;5051972;28;20238;-74
2022/12/30 03:46:00;;;;;;;4.47;1.35;;;;;11.30;100711.00;;;;5053541;28;20672;-74
2022/12/30 03:48:27;;;;;;;6.80;1.70;;;;;11.30;100704.00;;;;5056426;28;20187;-75
2022/12/30 03:50:54;;;;;;;2.67;1.23;;;;;11.30;100701.00;;;;5066529;28;20226;-75
2022/12/30 03:53:23;;;;;;;6.30;1.60;;;;;11.40;100704.00;;;;5052185;28;20218;-75
2022/12/30 03:55:52;;;;;;;4.88;1.08;;;;;11.40;100702.00;;;;5053897;28;20680;-75
2022/12/30 03:58:19;;;;;;;1.67;1.00;;;;;11.40;100709.00;;;;5064169;28;20215;-75
2022/12/30 04:00:46;;;;;;;3.88;1.13;;;;;11.40;100706.00;;;;5053737;28;20206;-75
2022/12/30 04:03:14;;;;;;;5.70;1.45;;;;;11.40;100705.00;;;;5058519;28;20207;-75
2022/12/30 04:05:42;;;;;;;5.45;1.38;;;;;11.40;100706.00;;;;5052501;28;20192;-75
2022/12/30 04:08:09;;;;;;;6.07;1.35;;;;;11.40;100703.00;;;;5062048;28;20207;-75
2022/12/30 04:10:38;;;;;;;3.55;0.80;;;;;11.30;100717.00;;;;5050643;28;20219;-75
2022/12/30 04:13:05;;;;;;;7.78;1.27;;;;;11.40;100716.00;;;;5051162;28;20199;-75
2022/12/30 04:15:32;;;;;;;1.85;0.82;;;;;11.30;100711.00;;;;5053876;28;20191;-75
2022/12/30 04:17:59;;;;;;;4.07;1.10;;;;;11.30;100709.00;;;;5053161;28;20199;-75
2022/12/30 04:20:26;;;;;;;5.57;0.80;;;;;11.30;100717.00;;;;5055630;28;20195;-75
2022/12/30 04:22:58;;;;;;;5.88;1.38;;;;;11.30;100726.00;;;;5061825;28;20230;-75
2022/12/30 04:25:26;;;;;;;5.25;0.93;;;;;11.30;100720.00;;;;5063457;28;20243;-75
2022/12/30 04:27:54;;;;;;;5.07;1.27;;;;;11.30;100716.00;;;;5057113;28;20198;-75
2022/12/30 04:30:22;;;;;;;1.73;0.65;;;;;11.30;100715.00;;;;5048392;28;20246;-75
2022/12/30 04:32:49;;;;;;;4.30;0.98;;;;;11.30;100725.00;;;;5050016;28;20192;-75
2022/12/30 04:35:16;;;;;;;4.70;0.93;;;;;11.30;100725.00;;;;5055299;28;20199;-75
2022/12/30 04:37:43;;;;;;;2.83;0.77;;;;;11.30;100721.00;;;;5058472;28;20200;-75
2022/12/30 04:40:11;;;;;;;3.15;1.13;;;;;11.20;100719.00;;;;5049702;28;20203;-74
2022/12/30 04:42:38;;;;;;;3.35;0.73;;;;;11.20;100719.00;;;;5049127;28;20196;-75
2022/12/30 04:45:09;;;;;;;4.38;1.27;;;;;11.20;100721.00;;;;5054227;28;20223;-75
2022/12/30 04:47:36;;;;;;;2.30;0.93;;;;;11.20;100721.00;;;;5059104;28;20192;-75
2022/12/30 04:50:04;;;;;;;3.30;1.00;;;;;11.20;100711.00;;;;5058542;28;20230;-75
2022/12/30 04:52:32;;;;;;;3.00;1.08;;;;;11.10;100711.00;;;;5054095;28;20187;-75
2022/12/30 04:54:59;;;;;;;3.28;1.02;;;;;11.10;100717.00;;;;5055839;28;20198;-75
2022/12/30 04:57:26;;;;;;;4.47;1.05;;;;;11.10;100702.00;;;;5050585;28;20210;-75
2022/12/30 04:59:53;;;;;;;5.57;1.35;;;;;11.10;100706.00;;;;5050926;28;20681;-75
2022/12/30 05:02:22;;;;;;;3.50;0.73;;;;;11.10;100701.00;;;;5050388;28;20206;-75
2022/12/30 05:04:49;;;;;;;5.25;1.27;;;;;11.10;100707.00;;;;5051745;28;20205;-75
2022/12/30 05:07:16;;;;;;;4.68;1.20;;;;;11.10;100704.00;;;;5053331;28;20187;-75
2022/12/30 05:09:44;;;;;;;4.30;0.80;;;;;11.00;100704.00;;;;5057151;28;20198;-75
2022/12/30 05:12:11;;;;;;;2.63;1.02;;;;;11.00;100709.00;;;;5051670;28;20712;-74
2022/12/30 05:14:38;;;;;;;2.45;1.15;;;;;11.00;100694.00;;;;5051083;28;20233;-75
2022/12/30 05:17:06;;;;;;;5.78;1.23;;;;;11.00;100693.00;;;;5054232;28;20190;-74
2022/12/30 05:19:34;;;;;;;3.88;0.70;;;;;11.00;100691.00;;;;5061660;28;20210;-75
2022/12/30 05:22:01;;;;;;;7.13;1.33;;;;;11.00;100685.00;;;;5050534;28;20211;-75
2022/12/30 05:27:14;;;;;;;1.58;0.80;;;;;11.00;100687.00;;;;5062392;28;20209;-75
2022/12/30 05:29:41;;;;;;;1.52;1.05;;;;;11.00;100686.00;;;;5067552;28;20202;-75
2022/12/30 05:32:08;;;;;;;2.58;1.20;;;;;10.90;100686.00;;;;5054891;28;20227;-75
2022/12/30 05:34:37;;;;;;;5.85;0.98;;;;;10.90;100688.00;;;;5051504;28;20204;-75
2022/12/30 05:37:04;;;;;;;4.38;1.13;;;;;10.90;100694.00;;;;5049178;28;20191;-75
2022/12/30 05:39:31;;;;;;;5.30;1.23;;;;;10.90;100686.00;;;;5058435;28;20337;-75
2022/12/30 05:41:59;;;;;;;7.68;1.13;;;;;10.90;100686.00;;;;5065906;28;20658;-75
2022/12/30 05:44:26;;;;;;;4.97;0.90;;;;;10.90;100682.00;;;;5059750;28;20234;-74
2022/12/30 05:46:53;;;;;;;6.60;1.40;;;;;10.90;100681.00;;;;5067568;28;20218;-75
2022/12/30 05:49:21;;;;;;;3.83;1.13;;;;;10.90;100685.00;;;;5050669;28;20252;-75
2022/12/30 05:51:50;;;;;;;3.45;0.88;;;;;10.90;100681.00;;;;5049443;28;20612;-75
2022/12/30 05:54:17;;;;;;;3.70;0.82;;;;;10.90;100676.00;;;;5061323;28;20199;-75
2022/12/30 05:56:44;;;;;;;5.63;1.25;;;;;10.90;100681.00;;;;5069479;28;20198;-75
2022/12/30 05:59:12;;;;;;;3.75;1.10;;;;;10.90;100672.00;;;;5063657;28;20206;-75
2022/12/30 06:01:39;;;;;;;3.92;1.27;;;;;10.90;100678.00;;;;5061510;28;20213;-75
2022/12/30 06:04:06;;;;;;;6.28;1.27;;;;;10.90;100670.00;;;;5049823;28;20597;-75
2022/12/30 06:06:33;;;;;;;3.05;1.08;;;;;10.90;100674.00;;;;5065050;28;20655;-75
2022/12/30 06:09:02;;;;;;;6.45;0.93;;;;;10.90;100671.00;;;;5056540;28;20214;-75
2022/12/30 06:11:29;;;;;;;5.35;1.58;;;;;10.90;100662.00;;;;5046694;28;20219;-75
2022/12/30 06:13:56;;;;;;;4.75;1.20;;;;;10.90;100662.00;;;;5047865;28;20204;-75
2022/12/30 06:16:24;;;;;;;4.40;0.85;;;;;10.90;100662.00;;;;5047643;28;20192;-75
2022/12/30 06:18:51;;;;;;;3.05;1.17;;;;;10.90;100672.00;;;;5065055;28;20196;-74
2022/12/30 06:21:18;;;;;;;4.53;0.80;;;;;10.90;100673.00;;;;5049378;28;20674;-75
2022/12/30 06:23:45;;;;;;;2.63;0.70;;;;;10.90;100669.00;;;;5065382;28;20211;-75
2022/12/30 06:26:14;;;;;;;3.83;0.85;;;;;10.80;100662.00;;;;5058079;28;20666;-75
2022/12/30 06:28:41;;;;;;;9.48;1.63;;;;;10.80;100662.00;;;;5049454;28;20200;-75
2022/12/30 06:31:08;;;;;;;7.72;1.30;;;;;10.80;100655.00;;;;5057818;28;20222;-75
2022/12/30 06:33:37;;;;;;;3.70;1.65;;;;;10.80;100650.00;;;;5055322;28;20191;-75
2022/12/30 06:36:04;;;;;;;6.10;1.48;;;;;10.80;100652.00;;;;5064478;28;20199;-74
2022/12/30 06:38:31;;;;;;;9.27;2.08;;;;;10.80;100645.00;;;;5052878;28;20203;-75
2022/12/30 06:40:59;;;;;;;5.03;0.90;;;;;10.80;100641.00;;;;5053159;28;20574;-75
2022/12/30 06:43:27;;;;;;;3.78;1.50;;;;;10.80;100639.00;;;;5056803;28;20241;-74
2022/12/30 06:45:55;;;;;;;3.47;1.05;;;;;10.80;100639.00;;;;5064291;28;20732;-75
2022/12/30 06:48:22;;;;;;;4.35;1.52;;;;;10.80;100633.00;;;;5063495;28;20199;-75
2022/12/30 06:50:49;;;;;;;4.63;1.25;;;;;10.80;100631.00;;;;5049905;28;20615;-75
2022/12/30 06:53:17;;;;;;;3.75;1.45;;;;;10.80;100630.00;;;;5051256;28;20199;-75
2022/12/30 06:55:44;;;;;;;2.45;1.20;;;;;10.80;100614.00;;;;5050554;28;20199;-75
2022/12/30 06:58:11;;;;;;;5.40;1.23;;;;;10.80;100619.00;;;;5050258;28;20204;-75
2022/12/30 07:00:40;;;;;;;4.47;1.73;;;;;10.80;100612.00;;;;5058670;28;20195;-75
2022/12/30 07:03:07;;;;;;;5.03;1.27;;;;;10.80;100611.00;;;;5063291;28;20191;-75
2022/12/30 07:05:34;;;;;;;6.60;2.10;;;;;10.80;100600.00;;;;5060008;28;20717;-75
2022/12/30 07:08:01;;;;;;;3.20;1.38;;;;;10.80;100602.00;;;;5056249;28;20202;-75
2022/12/30 07:10:29;;;;;;;5.78;1.60;;;;;10.80;100594.00;;;;5064305;28;20194;-75
2022/12/30 07:12:56;;;;;;;2.60;1.45;;;;;10.80;100592.00;;;;5060502;28;20199;-75
2022/12/30 07:15:23;;;;;;;4.18;1.52;;;;;10.80;100591.00;;;;5048624;28;20207;-75
2022/12/30 07:17:52;;;;;;;9.57;1.98;;;;;10.80;100586.00;;;;5057984;28;20398;-75
2022/12/30 07:20:19;;;;;;;5.95;1.48;;;;;10.80;100592.00;;;;5056712;28;20240;-75
2022/12/30 07:22:46;;;;;;;2.22;1.02;;;;;10.80;100597.00;;;;5061178;28;20209;-75
2022/12/30 07:25:15;;;;;;;7.35;1.83;;;;;10.70;100582.00;;;;5063935;28;20214;-76
2022/12/30 07:27:42;;;;;;;3.75;1.33;;;;;10.80;100587.00;;;;5055812;28;20199;-75
2022/12/30 07:30:11;;;;;;;3.88;1.55;;;;;10.70;100580.00;;;;5051933;28;20204;-76
2022/12/30 07:32:38;;;;;;;3.97;1.35;;;;;10.80;100577.00;;;;5051622;28;20254;-76
2022/12/30 07:35:11;;;;;;;7.05;1.60;;;;;10.70;100581.00;;;;5058340;28;20210;-76
2022/12/30 07:37:38;;;;;;;3.10;1.30;;;;;10.70;100588.00;;;;5052542;28;20292;-77
2022/12/30 07:40:07;;;;;;;5.30;1.75;;;;;10.80;100573.00;;;;5056702;28;20198;-76
2022/12/30 07:42:36;;;;;;;4.00;1.08;;;;;10.80;100568.00;;;;5052027;28;20204;-75
2022/12/30 07:45:04;;;;;;;6.35;1.33;;;;;10.80;100559.00;;;;5051292;28;20230;-76
2022/12/30 07:47:32;;;;;;;2.75;1.60;;;;;10.80;100557.00;;;;5053402;28;20196;-76
2022/12/30 07:50:00;;;;;;;5.15;1.60;;;;;10.80;100556.00;;;;5056647;28;20227;-76
2022/12/30 07:52:28;;;;;;;7.05;1.20;;;;;10.80;100543.00;;;;5057662;28;20219;-76
2022/12/30 07:54:56;;;;;;;3.17;1.02;;;;;10.80;100525.00;;;;5053686;28;20281;-77
2022/12/30 07:57:23;;;;;;;4.45;1.42;;;;;10.80;100531.00;;;;5054158;28;20192;-74
2022/12/30 07:59:51;;;;;;;5.80;1.65;;;;;10.80;100527.00;;;;5059546;28;20195;-76
2022/12/30 08:02:19;;;;;;;4.15;1.38;;;;;10.80;100519.00;;;;5059069;28;20234;-75
2022/12/30 08:04:46;;;;;;;1.73;1.08;;;;;10.90;100524.00;;;;5052394;28;20204;-75
2022/12/30 08:07:17;;;;;;;5.20;1.80;;;;;10.90;100521.00;;;;5065951;28;20198;-77
2022/12/30 08:09:48;;;;;;;2.22;0.88;;;;;10.90;100527.00;;;;5060181;28;20202;-76
2022/12/30 08:12:16;;;;;;;4.90;1.02;;;;;10.90;100522.00;;;;5050003;28;20220;-77
2022/12/30 08:14:44;;;;;;;3.40;1.30;;;;;10.90;100514.00;;;;5051079;28;20192;-77
2022/12/30 08:17:12;;;;;;;5.82;1.80;;;;;11.00;100509.00;;;;5050483;28;20196;-77
2022/12/30 08:19:39;;;;;;;2.35;1.30;;;;;11.00;100495.00;;;;5058739;28;20199;-76
2022/12/30 08:22:06;;;;;;;4.40;1.35;;;;;11.00;100492.00;;;;5064322;28;20202;-76
2022/12/30 08:24:33;;;;;;;3.67;1.13;;;;;11.00;100492.00;;;;5064806;28;20932;-76
2022/12/30 08:27:02;;;;;;;4.03;0.90;;;;;11.10;100485.00;;;;5063726;28;20202;-77
2022/12/30 08:29:29;;;;;;;3.95;1.52;;;;;11.10;100485.00;;;;5066828;28;20267;-76
2022/12/30 08:31:58;;;;;;;3.80;1.15;;;;;11.10;100475.00;;;;5066252;28;20219;-77
2022/12/30 08:34:26;;;;;;;3.22;1.20;;;;;11.10;100468.00;;;;5060751;28;20195;-77
2022/12/30 08:36:53;;;;;;;2.35;0.93;;;;;11.20;100463.00;;;;5070750;28;20218;-76
2022/12/30 08:39:20;;;;;;;2.83;1.00;;;;;11.20;100474.00;;;;5066302;28;20206;-76
2022/12/30 08:41:48;;;;;;;2.83;1.48;;;;;11.30;100458.00;;;;5070222;28;20197;-77
2022/12/30 08:44:17;;;;;;;6.25;1.63;;;;;11.30;100455.00;;;;5069594;28;20231;-77
2022/12/30 08:46:44;;;;;;;3.13;0.80;;;;;11.30;100458.00;;;;5063730;28;20183;-77
2022/12/30 08:49:13;;;;;;;5.88;1.13;;;;;11.30;100466.00;;;;5051123;28;20195;-75
2022/12/30 08:51:40;;;;;;;3.05;1.13;;;;;11.40;100463.00;;;;5050324;28;20578;-77
2022/12/30 08:54:08;;;;;;;4.57;1.38;;;;;11.40;100468.00;;;;5053537;28;20200;-77
2022/12/30 08:56:39;;;;;;;1.35;0.75;;;;;11.40;100454.00;;;;5050475;28;20684;-76
2022/12/30 08:59:06;;;;;;;2.50;0.85;;;;;11.50;100458.00;;;;5056136;28;20290;-76
2022/12/30 09:01:38;;;;;;;3.95;1.33;;;;;11.50;100464.00;;;;5068940;28;20202;-75
2022/12/30 09:04:07;;;;;;;3.13;2.15;;;;;11.60;100462.00;;;;5063663;28;20729;-77
2022/12/30 09:06:36;;;;;;;2.22;1.10;;;;;11.60;100452.00;;;;5050028;28;20237;-76
2022/12/30 09:09:06;;;;;;;5.07;1.27;;;;;11.60;100459.00;;;;5050100;28;20200;-77
2022/12/30 09:11:35;;;;;;;6.53;1.40;;;;;11.70;100450.00;;;;5050417;28;20219;-77
2022/12/30 09:14:04;;;;;;;2.63;1.00;;;;;11.70;100443.00;;;;5061058;28;20206;-77
2022/12/30 09:16:32;;;;;;;6.32;1.20;;;;;11.70;100438.00;;;;5050202;28;20200;-77
2022/12/30 09:19:01;;;;;;;2.65;1.10;;;;;11.80;100428.00;;;;5050196;28;20191;-76
2022/12/30 09:21:30;;;;;;;2.97;1.30;;;;;11.80;100421.00;;;;5049823;28;20199;-77
2022/12/30 09:23:57;;;;;;;1.92;1.10;;;;;11.80;100419.00;;;;5049905;28;20192;-77
2022/12/30 09:26:27;;;;;;;4.15;1.20;;;;;11.90;100417.00;;;;5049748;28;20198;-77
2022/12/30 09:28:55;;;;;;;3.13;1.05;;;;;11.90;100421.00;;;;5053624;28;20672;-77
2022/12/30 09:31:22;;;;;;;1.60;0.88;;;;;12.00;100413.00;;;;5067027;28;20506;-75
2022/12/30 09:33:49;;;;;;;5.28;2.03;;;;;12.00;100407.00;;;;5056159;28;20195;-74
2022/12/30 09:36:19;;;;;;;1.60;1.05;;;;;12.00;100406.00;;;;5069427;28;20209;-75
2022/12/30 09:38:46;;;;;;;2.50;1.05;;;;;12.10;100406.00;;;;5068858;28;20855;-75
2022/12/30 09:43:14;;;;;;;2.03;0.80;;;;;12.10;100399.00;;;;5049733;28;20612;-75
2022/12/30 09:44:15;;;;;;;3.15;1.10;;;;;12.10;100394.00;;;;5052513;28;20230;-75
2022/12/30 09:46:47;;;;;;;1.40;0.65;;;;;12.20;100381.00;;;;5050055;28;20195;-75
2022/12/30 09:49:23;;;;;;;2.60;0.90;;;;;12.20;100386.00;;;;5052617;28;20199;-75
2022/12/30 09:51:57;;;;;;;2.95;0.90;;;;;12.20;100389.00;;;;5053725;28;20238;-75
2022/12/30 09:54:28;;;;;;;2.60;1.00;;;;;12.30;100389.00;;;;5062140;28;20271;-76
2022/12/30 09:57:30;;;;;;;2.55;1.23;;;;;12.40;100374.00;;;;5069047;28;20194;-75
2022/12/30 09:59:52;;;;;;;3.88;0.80;;;;;12.40;100366.00;;;;5058876;28;20634;-75
2022/12/30 10:02:23;;;;;;;2.47;0.85;;;;;12.50;100360.00;;;;5052106;28;20202;-75
2022/12/30 10:04:50;;;;;;;2.50;0.90;;;;;12.60;100364.00;;;;5048124;28;20191;-75
2022/12/30 10:07:29;;;;;;;2.17;0.90;;;;;12.50;100344.00;;;;5048153;28;20208;-77
2022/12/30 10:10:02;;;;;;;3.53;0.85;;;;;12.60;100348.00;;;;5049456;28;20194;-76
2022/12/30 10:12:40;;;;;;;2.15;0.68;;;;;12.60;100341.00;;;;5047833;28;20219;-75
2022/12/30 10:15:33;;;;;;;3.90;1.00;;;;;12.60;100342.00;;;;5049114;28;20202;-76
2022/12/30 10:18:14;;;;;;;2.72;0.47;;;;;12.70;100333.00;;;;5049264;28;20199;-76
2022/12/30 10:20:56;;;;;;;1.88;0.77;;;;;12.80;100320.00;;;;5054854;28;20192;-76
2022/12/30 10:23:37;;;;;;;1.42;0.75;;;;;12.80;100307.00;;;;5056430;28;20203;-75
2022/12/30 10:26:12;;;;;;;1.67;0.82;;;;;12.90;100296.00;;;;5048834;28;20230;-76
2022/12/30 10:28:45;;;;;;;1.60;0.55;;;;;13.00;100294.00;;;;5047261;28;20226;-75
2022/12/30 10:31:19;;;;;;;4.60;0.77;;;;;13.00;100280.00;;;;5046946;28;20588;-76
2022/12/30 10:33:48;;;;;;;1.30;0.50;;;;;13.10;100272.00;;;;5047994;28;20219;-76
2022/12/30 10:36:21;;;;;;;2.92;0.75;;;;;13.10;100262.00;;;;5048351;28;20203;-77
2022/12/30 10:38:50;;;;;;;1.10;0.50;;;;;13.10;100260.00;;;;5050660;28;20225;-77
2022/12/30 10:41:34;;;;;;;5.25;1.20;;;;;13.10;100255.00;;;;5048190;28;20203;-77
2022/12/30 10:44:12;;;;;;;5.53;0.60;;;;;13.20;100230.00;;;;5047638;28;20234;-76
2022/12/30 10:47:15;;;;;;;1.40;0.77;;;;;13.20;100219.00;;;;5047569;28;20195;-78
2022/12/30 10:50:11;;;;;;;1.85;0.50;;;;;13.20;100206.00;;;;5065276;28;20191;-77
2022/12/30 10:52:38;;;;;;;2.90;0.55;;;;;13.40;100198.00;;;;5048283;28;20661;-77
2022/12/30 10:55:22;;;;;;;0.93;0.55;;;;;13.30;100191.00;;;;5053959;28;20214;-77
2022/12/30 10:57:52;;;;;;;8.57;0.70;;;;;13.40;100179.00;;;;5062228;28;20194;-76
2022/12/30 11:00:21;;;;;;;2.78;0.60;;;;;13.50;100180.00;;;;5067575;28;20187;-76
2022/12/30 11:02:57;;;;;;;2.20;0.45;;;;;13.40;100181.00;;;;5056731;28;20258;-77
2022/12/30 11:05:31;;;;;;;2.03;0.63;;;;;13.50;100170.00;;;;5066778;28;20661;-76
2022/12/30 11:08:00;;;;;;;4.68;1.27;;;;;13.60;100164.00;;;;5068327;28;20194;-77
2022/12/30 11:10:31;;;;;;;3.13;1.00;;;;;13.60;100157.00;;;;5065362;28;20195;-77
2022/12/30 11:15:58;;;;;;;1.63;0.70;;;;;13.60;100137.00;;;;5065407;28;20221;-77
2022/12/30 11:18:29;;;;;;;2.78;0.47;;;;;13.60;100115.00;;;;5056920;28;21172;-77
2022/12/30 11:20:58;;;;;;;5.38;0.68;;;;;13.70;100113.00;;;;5048114;28;20195;-77
2022/12/30 11:23:29;;;;;;;2.15;0.63;;;;;13.70;100114.00;;;;5047871;28;20210;-76
2022/12/30 11:25:59;;;;;;;1.67;0.30;;;;;13.70;100088.00;;;;5053237;28;20211;-77
2022/12/30 11:28:29;;;;;;;3.30;0.75;;;;;13.70;100090.00;;;;5064268;28;20198;-77
2022/12/30 11:31:02;;;;;;;1.52;0.60;;;;;13.70;100077.00;;;;5068918;28;20199;-77
2022/12/30 11:33:34;;;;;;;2.88;0.63;;;;;13.80;100064.00;;;;5064595;28;20247;-77
2022/12/30 11:36:18;;;;;;;2.40;0.65;;;;;13.70;100059.00;;;;5054964;28;20474;-77
2022/12/30 11:38:46;;;;;;;2.75;0.70;;;;;13.80;100050.00;;;;5062561;28;20199;-76
2022/12/30 11:41:28;;;;;;;2.05;0.68;;;;;13.70;100044.00;;;;5057550;28;20263;-77
2022/12/30 11:44:14;;;;;;;1.67;0.70;;;;;13.70;100029.00;;;;5071327;28;20222;-76
2022/12/30 11:46:44;;;;;;;3.75;0.70;;;;;13.80;100025.00;;;;5057186;28;20273;-75
2022/12/30 11:49:26;;;;;;;2.33;1.00;;;;;13.80;100009.00;;;;5052492;28;20286;-77
2022/12/30 11:51:56;;;;;;;1.50;0.70;;;;;13.80;99995.00;;;;5051948;28;20963;-77
2022/12/30 11:54:26;;;;;;;3.92;1.63;;;;;13.90;99986.00;;;;5051316;28;20646;-78
2022/12/30 11:57:01;;;;;;;1.25;0.60;;;;;13.90;99978.00;;;;5051532;28;20198;-76
2022/12/30 11:59:34;;;;;;;2.92;0.98;;;;;13.90;99966.00;;;;5050664;28;20195;-77
2022/12/30 12:02:04;;;;;;;1.58;0.70;;;;;13.90;99971.00;;;;5050976;28;20306;-76
2022/12/30 12:04:36;;;;;;;2.97;0.80;;;;;13.90;99955.00;;;;5051043;28;20286;-76
2022/12/30 12:07:08;;;;;;;2.17;0.52;;;;;13.90;99938.00;;;;5051985;28;20287;-77
2022/12/30 12:09:40;;;;;;;3.38;0.47;;;;;13.90;99936.00;;;;5051203;28;20298;-78
2022/12/30 12:12:17;;;;;;;2.28;0.68;;;;;13.90;99929.00;;;;5050611;28;20643;-77
2022/12/30 12:15:03;;;;;;;1.73;0.90;;;;;13.90;99916.00;;;;5050694;28;20191;-77
2022/12/30 12:17:41;;;;;;;2.45;0.65;;;;;14.00;99893.00;;;;5051159;28;20202;-77
2022/12/30 12:20:17;;;;;;;2.65;0.70;;;;;14.00;99886.00;;;;5063990;28;20252;-76
2022/12/30 12:22:54;;;;;;;1.70;0.63;;;;;14.00;99891.00;;;;5071743;28;20288;-76
2022/12/30 12:25:28;;;;;;;3.30;0.68;;;;;14.10;99886.00;;;;5070545;28;20218;-77
2022/12/30 12:27:57;;;;;;;6.00;0.80;;;;;14.10;99873.00;;;;5070433;28;20195;-78
2022/12/30 12:30:35;;;;;;;2.00;0.60;;;;;14.10;99875.00;;;;5072723;28;20198;-78
2022/12/30 12:33:15;;;;;;;1.17;0.45;;;;;14.10;99861.00;;;;5053600;28;20219;-77
2022/12/30 12:35:48;;;;;;;1.08;0.65;;;;;14.10;99856.00;;;;5064202;28;20191;-76
2022/12/30 12:38:38;;;;;;;6.63;1.13;;;;;14.10;99863.00;;;;5062802;28;20619;-77
2022/12/30 12:41:29;;;;;;;3.72;1.17;;;;;14.20;99852.00;;;;5059106;28;20203;-78
2022/12/30 12:44:15;;;;;;;2.53;0.63;;;;;14.10;99849.00;;;;5040257;28;20238;-77
2022/12/30 12:46:59;;;;;;;1.92;0.73;;;;;14.20;99844.00;;;;5059639;28;20203;-78
2022/12/30 12:49:45;;;;;;;3.22;0.68;;;;;14.20;99828.00;;;;5070948;28;20199;-77
2022/12/30 12:52:26;;;;;;;1.55;0.73;;;;;14.20;99824.00;;;;5071824;28;20195;-75
2022/12/30 12:55:20;;;;;;;2.78;0.60;;;;;14.20;99802.00;;;;5069556;28;20203;-77
2022/12/30 12:57:57;;;;;;;4.80;0.98;;;;;14.20;99802.00;;;;5070823;28;20286;-77
2022/12/30 13:00:34;;;;;;;3.28;0.70;;;;;14.30;99788.00;;;;5056624;28;20230;-78
2022/12/30 13:03:40;;;;;;;1.63;0.60;;;;;14.20;99770.00;;;;5052194;28;22204;-77
2022/12/30 13:06:18;;;;;;;1.73;0.50;;;;;14.20;99747.00;;;;5070863;28;20202;-79
2022/12/30 13:09:24;;;;;;;2.42;0.68;;;;;14.20;99731.00;;;;5068348;28;20782;-77
2022/12/30 13:12:09;;;;;;;5.25;0.75;;;;;14.30;99710.00;;;;4989141;28;20198;-77
2022/12/30 13:14:44;;;;;;;3.08;0.88;;;;;14.30;99690.00;;;;4990206;28;20221;-78
2022/12/30 13:17:17;;;;;;;2.80;0.60;;;;;14.30;99660.00;;;;5034464;28;20198;-78
2022/12/30 13:19:53;;;;;;;3.05;0.85;;;;;14.20;99648.00;;;;5056357;28;20203;-77
2022/12/30 13:22:29;;;;;;;1.98;0.77;;;;;14.30;99639.00;;;;5056107;28;20726;-77
2022/12/30 13:24:58;;;;;;;2.30;0.68;;;;;14.30;99621.00;;;;5070020;28;20226;-77